sensor_id;sensor_type;location;lat;lon;timestamp;P1;durP1;ratioP1;P2;durP2;ratioP2
75620;SDS011;64574;48.506;-2.750;2024-03-23T00:53:28;8.05;;;1.20;;
75620;SDS011;64574;48.506;-2.750;2024-03-23T00:55:53;6.03;;;1.20;;
75620;SDS011;64574;48.506;-2.750;2024-03-23T00:58:19;8.20;;;1.38;;
75620;SDS011;64574;48.506;-2.750;2024-03-23T01:00:45;5.45;;;1.20;;
75620;SDS011;64574;48.506;-2.750;2024-03-23T01:03:10;8.27;;;1.15;;
75620;SDS011;64574;48.506;-2.750;2024-03-23T01:05:36;6.53;;;1.20;;
75620;SDS011;64574;48.506;-2.750;2024-03-23T01:08:02;6.70;;;1.10;;
75620;SDS011;64574;48.506;-2.750;2024-03-23T01:10:27;7.32;;;1.33;;
75620;SDS011;64574;48.506;-2.750;2024-03-23T01:12:53;4.90;;;1.05;;
75620;SDS011;64574;48.506;-2.750;2024-03-23T01:15:19;9.10;;;1.42;;
75620;SDS011;64574;48.506;-2.750;2024-03-23T01:17:44;7.70;;;1.20;;
75620;SDS011;64574;48.506;-2.750;2024-03-23T01:20:10;7.72;;;1.30;;
75620;SDS011;64574;48.506;-2.750;2024-03-23T01:22:36;8.88;;;1.48;;
75620;SDS011;64574;48.506;-2.750;2024-03-23T01:25:01;7.13;;;1.02;;
75620;SDS011;64574;48.506;-2.750;2024-03-23T01:27:27;9.60;;;1.30;;
75620;SDS011;64574;48.506;-2.750;2024-03-23T01:29:53;7.80;;;1.38;;
75620;SDS011;64574;48.506;-2.750;2024-03-23T01:32:18;5.88;;;1.08;;
75620;SDS011;64574;48.506;-2.750;2024-03-23T01:34:44;6.72;;;1.40;;
75620;SDS011;64574;48.506;-2.750;2024-03-23T01:37:10;4.72;;;0.95;;
75620;SDS011;64574;48.506;-2.750;2024-03-23T01:39:36;9.63;;;1.83;;
75620;SDS011;64574;48.506;-2.750;2024-03-23T01:42:01;10.02;;;1.58;;
75620;SDS011;64574;48.506;-2.750;2024-03-23T01:44:27;7.20;;;1.33;;
75620;SDS011;64574;48.506;-2.750;2024-03-23T01:46:53;8.38;;;1.20;;
75620;SDS011;64574;48.506;-2.750;2024-03-23T01:49:19;8.05;;;1.05;;
75620;SDS011;64574;48.506;-2.750;2024-03-23T01:51:45;7.38;;;1.33;;
75620;SDS011;64574;48.506;-2.750;2024-03-23T01:54:11;9.18;;;1.27;;
75620;SDS011;64574;48.506;-2.750;2024-03-23T01:56:37;5.78;;;1.10;;
75620;SDS011;64574;48.506;-2.750;2024-03-23T01:59:03;7.93;;;1.73;;
75620;SDS011;64574;48.506;-2.750;2024-03-23T02:01:30;6.47;;;1.27;;
75620;SDS011;64574;48.506;-2.750;2024-03-23T02:03:56;5.07;;;1.20;;
75620;SDS011;64574;48.506;-2.750;2024-03-23T02:06:22;10.07;;;0.98;;
75620;SDS011;64574;48.506;-2.750;2024-03-23T02:08:49;4.47;;;1.08;;
75620;SDS011;64574;48.506;-2.750;2024-03-23T02:11:14;9.18;;;1.25;;
75620;SDS011;64574;48.506;-2.750;2024-03-23T02:13:40;8.63;;;1.77;;
75620;SDS011;64574;48.506;-2.750;2024-03-23T02:16:06;7.68;;;0.82;;
75620;SDS011;64574;48.506;-2.750;2024-03-23T02:18:34;8.13;;;0.80;;
75620;SDS011;64574;48.506;-2.750;2024-03-23T02:21:00;5.88;;;0.95;;
75620;SDS011;64574;48.506;-2.750;2024-03-23T02:23:26;8.95;;;1.15;;
75620;SDS011;64574;48.506;-2.750;2024-03-23T02:25:52;8.88;;;1.10;;
75620;SDS011;64574;48.506;-2.750;2024-03-23T02:28:20;5.03;;;0.82;;
75620;SDS011;64574;48.506;-2.750;2024-03-23T02:30:48;5.22;;;0.95;;
75620;SDS011;64574;48.506;-2.750;2024-03-23T02:33:14;5.97;;;0.93;;
75620;SDS011;64574;48.506;-2.750;2024-03-23T02:35:40;7.30;;;0.93;;
75620;SDS011;64574;48.506;-2.750;2024-03-23T02:38:06;10.27;;;1.55;;
75620;SDS011;64574;48.506;-2.750;2024-03-23T02:40:31;8.18;;;1.20;;
75620;SDS011;64574;48.506;-2.750;2024-03-23T02:42:57;8.93;;;1.02;;
75620;SDS011;64574;48.506;-2.750;2024-03-23T02:45:22;7.20;;;0.95;;
75620;SDS011;64574;48.506;-2.750;2024-03-23T02:47:48;7.55;;;0.90;;
75620;SDS011;64574;48.506;-2.750;2024-03-23T02:50:20;7.25;;;1.08;;
75620;SDS011;64574;48.506;-2.750;2024-03-23T02:52:46;5.50;;;0.93;;
75620;SDS011;64574;48.506;-2.750;2024-03-23T02:55:12;7.10;;;1.23;;
75620;SDS011;64574;48.506;-2.750;2024-03-23T02:57:38;7.82;;;1.77;;
75620;SDS011;64574;48.506;-2.750;2024-03-23T03:00:03;3.92;;;0.65;;
75620;SDS011;64574;48.506;-2.750;2024-03-23T03:02:31;6.53;;;0.93;;
75620;SDS011;64574;48.506;-2.750;2024-03-23T03:04:57;9.50;;;1.05;;
75620;SDS011;64574;48.506;-2.750;2024-03-23T03:07:22;8.73;;;0.80;;
75620;SDS011;64574;48.506;-2.750;2024-03-23T03:09:48;4.53;;;0.95;;
75620;SDS011;64574;48.506;-2.750;2024-03-23T03:12:14;6.72;;;1.25;;
75620;SDS011;64574;48.506;-2.750;2024-03-23T03:14:39;3.75;;;0.90;;
75620;SDS011;64574;48.506;-2.750;2024-03-23T03:17:05;7.20;;;0.73;;
75620;SDS011;64574;48.506;-2.750;2024-03-23T03:19:31;3.42;;;0.60;;
75620;SDS011;64574;48.506;-2.750;2024-03-23T03:24:23;3.83;;;0.93;;
75620;SDS011;64574;48.506;-2.750;2024-03-23T03:26:48;7.68;;;0.77;;
75620;SDS011;64574;48.506;-2.750;2024-03-23T03:29:15;5.30;;;0.95;;
75620;SDS011;64574;48.506;-2.750;2024-03-23T03:31:40;6.13;;;0.65;;
75620;SDS011;64574;48.506;-2.750;2024-03-23T03:34:06;3.30;;;0.50;;
75620;SDS011;64574;48.506;-2.750;2024-03-23T03:36:32;6.20;;;0.70;;
75620;SDS011;64574;48.506;-2.750;2024-03-23T03:38:58;5.78;;;0.60;;
75620;SDS011;64574;48.506;-2.750;2024-03-23T03:41:23;5.65;;;1.23;;
75620;SDS011;64574;48.506;-2.750;2024-03-23T03:43:49;3.17;;;0.40;;
75620;SDS011;64574;48.506;-2.750;2024-03-23T03:46:15;5.40;;;0.80;;
75620;SDS011;64574;48.506;-2.750;2024-03-23T03:48:40;2.28;;;0.65;;
75620;SDS011;64574;48.506;-2.750;2024-03-23T03:51:06;2.92;;;0.47;;
75620;SDS011;64574;48.506;-2.750;2024-03-23T03:53:31;7.55;;;0.80;;
75620;SDS011;64574;48.506;-2.750;2024-03-23T03:56:00;4.53;;;0.50;;
75620;SDS011;64574;48.506;-2.750;2024-03-23T03:58:28;4.95;;;0.60;;
75620;SDS011;64574;48.506;-2.750;2024-03-23T04:00:53;3.88;;;0.60;;
75620;SDS011;64574;48.506;-2.750;2024-03-23T04:03:19;4.50;;;0.70;;
75620;SDS011;64574;48.506;-2.750;2024-03-23T04:05:52;6.78;;;1.08;;
75620;SDS011;64574;48.506;-2.750;2024-03-23T04:08:21;5.75;;;0.73;;
75620;SDS011;64574;48.506;-2.750;2024-03-23T04:10:47;7.43;;;0.80;;
75620;SDS011;64574;48.506;-2.750;2024-03-23T04:13:12;4.65;;;0.82;;
75620;SDS011;64574;48.506;-2.750;2024-03-23T04:15:38;10.50;;;1.05;;
75620;SDS011;64574;48.506;-2.750;2024-03-23T04:18:04;5.82;;;0.70;;
75620;SDS011;64574;48.506;-2.750;2024-03-23T04:20:30;3.53;;;0.50;;
75620;SDS011;64574;48.506;-2.750;2024-03-23T04:22:57;3.15;;;0.88;;
75620;SDS011;64574;48.506;-2.750;2024-03-23T04:25:23;4.55;;;0.73;;
75620;SDS011;64574;48.506;-2.750;2024-03-23T04:27:49;5.18;;;0.70;;
75620;SDS011;64574;48.506;-2.750;2024-03-23T04:30:14;3.10;;;0.60;;
75620;SDS011;64574;48.506;-2.750;2024-03-23T04:32:41;5.22;;;0.90;;
75620;SDS011;64574;48.506;-2.750;2024-03-23T04:35:07;5.15;;;1.20;;
75620;SDS011;64574;48.506;-2.750;2024-03-23T04:37:36;6.50;;;0.93;;
75620;SDS011;64574;48.506;-2.750;2024-03-23T04:40:02;5.30;;;0.93;;
75620;SDS011;64574;48.506;-2.750;2024-03-23T04:42:28;5.45;;;0.77;;
75620;SDS011;64574;48.506;-2.750;2024-03-23T04:44:54;4.00;;;0.68;;
75620;SDS011;64574;48.506;-2.750;2024-03-23T04:47:20;7.93;;;0.88;;
75620;SDS011;64574;48.506;-2.750;2024-03-23T04:49:45;5.90;;;0.70;;
75620;SDS011;64574;48.506;-2.750;2024-03-23T04:52:11;5.50;;;1.13;;
75620;SDS011;64574;48.506;-2.750;2024-03-23T04:54:37;7.75;;;1.10;;
75620;SDS011;64574;48.506;-2.750;2024-03-23T04:57:05;3.70;;;0.60;;
75620;SDS011;64574;48.506;-2.750;2024-03-23T04:59:31;5.78;;;0.68;;
75620;SDS011;64574;48.506;-2.750;2024-03-23T05:01:56;5.53;;;0.70;;
75620;SDS011;64574;48.506;-2.750;2024-03-23T05:04:22;4.45;;;0.73;;
75620;SDS011;64574;48.506;-2.750;2024-03-23T05:06:48;4.13;;;0.70;;
75620;SDS011;64574;48.506;-2.750;2024-03-23T05:09:14;4.90;;;0.60;;
75620;SDS011;64574;48.506;-2.750;2024-03-23T05:11:40;7.32;;;1.50;;
75620;SDS011;64574;48.506;-2.750;2024-03-23T05:14:09;6.07;;;0.85;;
75620;SDS011;64574;48.506;-2.750;2024-03-23T05:16:35;4.00;;;0.73;;
75620;SDS011;64574;48.506;-2.750;2024-03-23T05:19:01;4.40;;;0.80;;
75620;SDS011;64574;48.506;-2.750;2024-03-23T05:21:27;11.85;;;0.95;;
75620;SDS011;64574;48.506;-2.750;2024-03-23T05:23:55;8.02;;;0.93;;
75620;SDS011;64574;48.506;-2.750;2024-03-23T05:26:21;6.72;;;1.00;;
75620;SDS011;64574;48.506;-2.750;2024-03-23T05:28:48;5.57;;;0.80;;
75620;SDS011;64574;48.506;-2.750;2024-03-23T05:31:22;3.88;;;0.82;;
75620;SDS011;64574;48.506;-2.750;2024-03-23T05:33:49;4.78;;;0.95;;
75620;SDS011;64574;48.506;-2.750;2024-03-23T05:36:14;7.68;;;0.80;;
75620;SDS011;64574;48.506;-2.750;2024-03-23T05:38:40;7.22;;;0.90;;
75620;SDS011;64574;48.506;-2.750;2024-03-23T05:41:05;5.40;;;0.90;;
75620;SDS011;64574;48.506;-2.750;2024-03-23T05:43:31;4.97;;;1.20;;
75620;SDS011;64574;48.506;-2.750;2024-03-23T05:45:57;4.63;;;1.17;;
75620;SDS011;64574;48.506;-2.750;2024-03-23T05:48:24;7.57;;;1.70;;
75620;SDS011;64574;48.506;-2.750;2024-03-23T05:50:50;5.22;;;0.98;;
75620;SDS011;64574;48.506;-2.750;2024-03-23T05:53:17;3.35;;;1.08;;
75620;SDS011;64574;48.506;-2.750;2024-03-23T05:55:45;5.45;;;0.80;;
75620;SDS011;64574;48.506;-2.750;2024-03-23T05:58:14;5.40;;;0.77;;
75620;SDS011;64574;48.506;-2.750;2024-03-23T06:00:41;5.63;;;1.30;;
75620;SDS011;64574;48.506;-2.750;2024-03-23T06:03:09;7.68;;;0.73;;
75620;SDS011;64574;48.506;-2.750;2024-03-23T06:05:38;6.10;;;0.60;;
75620;SDS011;64574;48.506;-2.750;2024-03-23T06:08:04;6.22;;;0.80;;
75620;SDS011;64574;48.506;-2.750;2024-03-23T06:10:30;5.90;;;0.70;;
75620;SDS011;64574;48.506;-2.750;2024-03-23T06:12:56;5.07;;;0.75;;
75620;SDS011;64574;48.506;-2.750;2024-03-23T06:15:23;7.75;;;0.85;;
75620;SDS011;64574;48.506;-2.750;2024-03-23T06:17:49;4.85;;;0.98;;
75620;SDS011;64574;48.506;-2.750;2024-03-23T06:20:15;5.55;;;0.98;;
75620;SDS011;64574;48.506;-2.750;2024-03-23T06:22:41;5.65;;;0.98;;
75620;SDS011;64574;48.506;-2.750;2024-03-23T06:25:07;4.97;;;1.05;;
75620;SDS011;64574;48.506;-2.750;2024-03-23T06:27:33;5.63;;;0.65;;
75620;SDS011;64574;48.506;-2.750;2024-03-23T06:29:58;3.80;;;1.05;;
75620;SDS011;64574;48.506;-2.750;2024-03-23T06:32:25;4.68;;;0.82;;
75620;SDS011;64574;48.506;-2.750;2024-03-23T06:34:50;3.78;;;0.55;;
75620;SDS011;64574;48.506;-2.750;2024-03-23T06:37:16;7.22;;;1.08;;
75620;SDS011;64574;48.506;-2.750;2024-03-23T06:39:41;6.70;;;0.75;;
75620;SDS011;64574;48.506;-2.750;2024-03-23T06:42:07;4.40;;;0.70;;
75620;SDS011;64574;48.506;-2.750;2024-03-23T06:44:33;5.47;;;0.75;;
75620;SDS011;64574;48.506;-2.750;2024-03-23T06:46:59;7.47;;;1.00;;
75620;SDS011;64574;48.506;-2.750;2024-03-23T06:49:24;8.07;;;1.15;;
75620;SDS011;64574;48.506;-2.750;2024-03-23T06:51:50;6.30;;;0.80;;
75620;SDS011;64574;48.506;-2.750;2024-03-23T06:54:16;3.55;;;0.90;;
75620;SDS011;64574;48.506;-2.750;2024-03-23T06:56:43;5.30;;;1.10;;
75620;SDS011;64574;48.506;-2.750;2024-03-23T06:59:09;4.70;;;0.80;;
75620;SDS011;64574;48.506;-2.750;2024-03-23T07:01:35;5.95;;;1.10;;
75620;SDS011;64574;48.506;-2.750;2024-03-23T07:04:00;5.80;;;0.90;;
75620;SDS011;64574;48.506;-2.750;2024-03-23T07:06:26;8.90;;;1.10;;
75620;SDS011;64574;48.506;-2.750;2024-03-23T07:08:52;5.40;;;0.85;;
75620;SDS011;64574;48.506;-2.750;2024-03-23T07:11:18;7.25;;;1.15;;
75620;SDS011;64574;48.506;-2.750;2024-03-23T07:13:45;3.95;;;1.00;;
75620;SDS011;64574;48.506;-2.750;2024-03-23T07:16:11;9.43;;;1.75;;
75620;SDS011;64574;48.506;-2.750;2024-03-23T07:18:36;4.60;;;1.00;;
75620;SDS011;64574;48.506;-2.750;2024-03-23T07:21:02;4.57;;;0.90;;
75620;SDS011;64574;48.506;-2.750;2024-03-23T07:23:28;5.50;;;1.10;;
75620;SDS011;64574;48.506;-2.750;2024-03-23T07:26:00;9.75;;;1.15;;
75620;SDS011;64574;48.506;-2.750;2024-03-23T07:28:27;6.57;;;1.52;;
75620;SDS011;64574;48.506;-2.750;2024-03-23T07:31:06;8.10;;;1.10;;
75620;SDS011;64574;48.506;-2.750;2024-03-23T07:33:36;7.50;;;1.40;;
75620;SDS011;64574;48.506;-2.750;2024-03-23T07:36:06;9.85;;;0.93;;
75620;SDS011;64574;48.506;-2.750;2024-03-23T07:38:32;5.00;;;0.98;;
75620;SDS011;64574;48.506;-2.750;2024-03-23T07:41:07;11.15;;;1.40;;
75620;SDS011;64574;48.506;-2.750;2024-03-23T07:43:33;9.02;;;1.40;;
75620;SDS011;64574;48.506;-2.750;2024-03-23T07:45:59;5.40;;;1.02;;
75620;SDS011;64574;48.506;-2.750;2024-03-23T07:48:26;9.23;;;1.13;;
75620;SDS011;64574;48.506;-2.750;2024-03-23T07:51:10;7.50;;;1.30;;
75620;SDS011;64574;48.506;-2.750;2024-03-23T07:53:44;6.75;;;1.33;;
75620;SDS011;64574;48.506;-2.750;2024-03-23T07:58:37;5.53;;;1.52;;
75620;SDS011;64574;48.506;-2.750;2024-03-23T08:01:04;9.00;;;1.38;;
75620;SDS011;64574;48.506;-2.750;2024-03-23T08:03:33;7.88;;;1.65;;
75620;SDS011;64574;48.506;-2.750;2024-03-23T08:06:06;13.05;;;2.17;;
75620;SDS011;64574;48.506;-2.750;2024-03-23T08:08:33;10.90;;;2.30;;
75620;SDS011;64574;48.506;-2.750;2024-03-23T08:10:59;12.47;;;2.10;;
75620;SDS011;64574;48.506;-2.750;2024-03-23T08:13:24;10.70;;;2.23;;
75620;SDS011;64574;48.506;-2.750;2024-03-23T08:15:51;10.80;;;1.92;;
75620;SDS011;64574;48.506;-2.750;2024-03-23T08:18:17;10.33;;;1.90;;
75620;SDS011;64574;48.506;-2.750;2024-03-23T08:20:42;10.50;;;1.87;;
75620;SDS011;64574;48.506;-2.750;2024-03-23T08:23:08;11.02;;;2.25;;
75620;SDS011;64574;48.506;-2.750;2024-03-23T08:25:34;10.85;;;2.22;;
75620;SDS011;64574;48.506;-2.750;2024-03-23T08:28:00;11.40;;;2.15;;
75620;SDS011;64574;48.506;-2.750;2024-03-23T08:30:28;10.98;;;2.33;;
75620;SDS011;64574;48.506;-2.750;2024-03-23T08:32:54;11.82;;;2.08;;
75620;SDS011;64574;48.506;-2.750;2024-03-23T08:35:20;11.40;;;2.03;;
75620;SDS011;64574;48.506;-2.750;2024-03-23T08:37:46;9.05;;;1.85;;
75620;SDS011;64574;48.506;-2.750;2024-03-23T08:40:11;13.40;;;2.03;;
75620;SDS011;64574;48.506;-2.750;2024-03-23T08:42:37;11.67;;;1.73;;
75620;SDS011;64574;48.506;-2.750;2024-03-23T08:45:03;11.45;;;2.22;;
75620;SDS011;64574;48.506;-2.750;2024-03-23T08:47:29;7.53;;;1.63;;
75620;SDS011;64574;48.506;-2.750;2024-03-23T08:49:54;7.68;;;1.58;;
75620;SDS011;64574;48.506;-2.750;2024-03-23T08:52:20;8.83;;;1.63;;
75620;SDS011;64574;48.506;-2.750;2024-03-23T08:54:48;5.90;;;1.60;;
75620;SDS011;64574;48.506;-2.750;2024-03-23T08:57:13;8.53;;;1.60;;
75620;SDS011;64574;48.506;-2.750;2024-03-23T08:59:39;11.50;;;1.60;;
75620;SDS011;64574;48.506;-2.750;2024-03-23T09:02:05;7.63;;;1.63;;
75620;SDS011;64574;48.506;-2.750;2024-03-23T09:04:30;8.23;;;1.40;;
75620;SDS011;64574;48.506;-2.750;2024-03-23T09:06:56;6.00;;;1.47;;
75620;SDS011;64574;48.506;-2.750;2024-03-23T09:09:24;9.43;;;1.60;;
75620;SDS011;64574;48.506;-2.750;2024-03-23T09:11:49;7.73;;;1.80;;
75620;SDS011;64574;48.506;-2.750;2024-03-23T09:14:15;9.93;;;1.63;;
75620;SDS011;64574;48.506;-2.750;2024-03-23T09:16:40;10.20;;;1.60;;
75620;SDS011;64574;48.506;-2.750;2024-03-23T09:19:06;10.13;;;1.90;;
75620;SDS011;64574;48.506;-2.750;2024-03-23T09:21:32;10.73;;;1.90;;
75620;SDS011;64574;48.506;-2.750;2024-03-23T09:23:58;9.77;;;1.50;;
75620;SDS011;64574;48.506;-2.750;2024-03-23T09:26:24;11.00;;;1.95;;
75620;SDS011;64574;48.506;-2.750;2024-03-23T09:28:50;11.38;;;1.80;;
75620;SDS011;64574;48.506;-2.750;2024-03-23T09:31:15;7.07;;;1.00;;
75620;SDS011;64574;48.506;-2.750;2024-03-23T09:33:41;8.35;;;1.50;;
75620;SDS011;64574;48.506;-2.750;2024-03-23T09:36:07;7.93;;;1.30;;
75620;SDS011;64574;48.506;-2.750;2024-03-23T09:38:33;8.65;;;1.42;;
75620;SDS011;64574;48.506;-2.750;2024-03-23T09:40:59;8.52;;;1.65;;
75620;SDS011;64574;48.506;-2.750;2024-03-23T09:43:25;9.45;;;1.60;;
75620;SDS011;64574;48.506;-2.750;2024-03-23T09:45:51;8.57;;;1.70;;
75620;SDS011;64574;48.506;-2.750;2024-03-23T09:48:18;7.73;;;1.43;;
75620;SDS011;64574;48.506;-2.750;2024-03-23T09:50:44;7.30;;;1.53;;
75620;SDS011;64574;48.506;-2.750;2024-03-23T09:53:11;9.95;;;1.65;;
75620;SDS011;64574;48.506;-2.750;2024-03-23T09:55:38;9.00;;;1.40;;
75620;SDS011;64574;48.506;-2.750;2024-03-23T09:58:05;10.38;;;1.80;;
75620;SDS011;64574;48.506;-2.750;2024-03-23T10:00:31;10.55;;;1.50;;
75620;SDS011;64574;48.506;-2.750;2024-03-23T10:02:58;7.80;;;1.52;;
75620;SDS011;64574;48.506;-2.750;2024-03-23T10:05:27;10.17;;;1.67;;
75620;SDS011;64574;48.506;-2.750;2024-03-23T10:07:53;6.22;;;1.33;;
75620;SDS011;64574;48.506;-2.750;2024-03-23T10:10:19;8.77;;;1.50;;
75620;SDS011;64574;48.506;-2.750;2024-03-23T10:12:47;12.68;;;1.70;;
75620;SDS011;64574;48.506;-2.750;2024-03-23T10:15:22;8.68;;;1.52;;
75620;SDS011;64574;48.506;-2.750;2024-03-23T10:17:49;8.45;;;1.83;;
75620;SDS011;64574;48.506;-2.750;2024-03-23T10:20:19;8.50;;;1.80;;
75620;SDS011;64574;48.506;-2.750;2024-03-23T10:22:47;10.13;;;1.70;;
75620;SDS011;64574;48.506;-2.750;2024-03-23T10:25:14;8.65;;;1.58;;
75620;SDS011;64574;48.506;-2.750;2024-03-23T10:27:40;10.88;;;1.80;;
75620;SDS011;64574;48.506;-2.750;2024-03-23T10:32:36;8.32;;;1.80;;
75620;SDS011;64574;48.506;-2.750;2024-03-23T10:35:15;9.60;;;1.63;;
75620;SDS011;64574;48.506;-2.750;2024-03-23T10:37:44;8.87;;;1.63;;
75620;SDS011;64574;48.506;-2.750;2024-03-23T10:40:10;8.60;;;1.80;;
75620;SDS011;64574;48.506;-2.750;2024-03-23T10:42:37;8.88;;;1.80;;
75620;SDS011;64574;48.506;-2.750;2024-03-23T10:45:04;7.37;;;1.10;;
75620;SDS011;64574;48.506;-2.750;2024-03-23T10:47:31;6.63;;;1.20;;
75620;SDS011;64574;48.506;-2.750;2024-03-23T10:49:57;4.90;;;0.90;;
75620;SDS011;64574;48.506;-2.750;2024-03-23T10:52:23;5.50;;;1.00;;
75620;SDS011;64574;48.506;-2.750;2024-03-23T10:54:50;5.18;;;0.95;;
75620;SDS011;64574;48.506;-2.750;2024-03-23T10:57:21;7.63;;;0.90;;
75620;SDS011;64574;48.506;-2.750;2024-03-23T11:00:02;4.22;;;0.90;;
75620;SDS011;64574;48.506;-2.750;2024-03-23T11:02:29;4.47;;;0.80;;
75620;SDS011;64574;48.506;-2.750;2024-03-23T11:04:55;5.65;;;1.58;;
75620;SDS011;64574;48.506;-2.750;2024-03-23T11:07:28;4.55;;;0.82;;
75620;SDS011;64574;48.506;-2.750;2024-03-23T11:09:58;4.07;;;0.90;;
75620;SDS011;64574;48.506;-2.750;2024-03-23T11:12:28;5.68;;;1.00;;
75620;SDS011;64574;48.506;-2.750;2024-03-23T11:15:02;6.05;;;1.13;;
75620;SDS011;64574;48.506;-2.750;2024-03-23T11:17:30;5.05;;;1.10;;
75620;SDS011;64574;48.506;-2.750;2024-03-23T11:19:57;7.45;;;1.50;;
75620;SDS011;64574;48.506;-2.750;2024-03-23T11:25:24;7.22;;;1.63;;
75620;SDS011;64574;48.506;-2.750;2024-03-23T11:27:52;5.22;;;1.10;;
75620;SDS011;64574;48.506;-2.750;2024-03-23T11:30:19;7.22;;;1.45;;
75620;SDS011;64574;48.506;-2.750;2024-03-23T11:32:54;6.47;;;1.40;;
75620;SDS011;64574;48.506;-2.750;2024-03-23T11:40:40;9.05;;;1.73;;
75620;SDS011;64574;48.506;-2.750;2024-03-23T11:43:07;7.93;;;1.52;;
75620;SDS011;64574;48.506;-2.750;2024-03-23T11:45:43;7.43;;;1.33;;
75620;SDS011;64574;48.506;-2.750;2024-03-23T11:48:13;7.70;;;1.02;;
75620;SDS011;64574;48.506;-2.750;2024-03-23T13:33:20;3.65;;;0.60;;
75620;SDS011;64574;48.506;-2.750;2024-03-23T17:06:06;6.50;;;1.55;;
75620;SDS011;64574;48.506;-2.750;2024-03-23T17:08:32;6.07;;;1.02;;
75620;SDS011;64574;48.506;-2.750;2024-03-23T17:11:01;6.47;;;0.98;;
75620;SDS011;64574;48.506;-2.750;2024-03-23T17:13:30;8.30;;;0.93;;
75620;SDS011;64574;48.506;-2.750;2024-03-23T17:15:56;3.40;;;0.85;;
75620;SDS011;64574;48.506;-2.750;2024-03-23T17:18:21;4.68;;;0.75;;
75620;SDS011;64574;48.506;-2.750;2024-03-23T17:20:47;3.72;;;0.68;;
75620;SDS011;64574;48.506;-2.750;2024-03-23T17:23:13;6.82;;;0.93;;
75620;SDS011;64574;48.506;-2.750;2024-03-23T17:25:47;6.63;;;1.23;;
75620;SDS011;64574;48.506;-2.750;2024-03-23T17:28:12;5.82;;;0.98;;
75620;SDS011;64574;48.506;-2.750;2024-03-23T17:30:38;7.68;;;1.20;;
75620;SDS011;64574;48.506;-2.750;2024-03-23T17:33:04;5.05;;;0.95;;
75620;SDS011;64574;48.506;-2.750;2024-03-23T17:35:29;7.53;;;1.30;;
75620;SDS011;64574;48.506;-2.750;2024-03-23T17:37:55;8.02;;;1.48;;
75620;SDS011;64574;48.506;-2.750;2024-03-23T17:40:21;9.65;;;1.35;;
75620;SDS011;64574;48.506;-2.750;2024-03-23T17:42:47;9.45;;;1.98;;
75620;SDS011;64574;48.506;-2.750;2024-03-23T17:45:13;6.35;;;1.02;;
75620;SDS011;64574;48.506;-2.750;2024-03-23T17:47:39;6.47;;;1.30;;
75620;SDS011;64574;48.506;-2.750;2024-03-23T17:50:07;9.50;;;1.20;;
75620;SDS011;64574;48.506;-2.750;2024-03-23T17:52:34;5.55;;;1.10;;
75620;SDS011;64574;48.506;-2.750;2024-03-23T17:55:00;10.18;;;2.00;;
75620;SDS011;64574;48.506;-2.750;2024-03-23T17:57:26;13.98;;;1.60;;
75620;SDS011;64574;48.506;-2.750;2024-03-23T17:59:52;13.23;;;2.42;;
75620;SDS011;64574;48.506;-2.750;2024-03-23T18:02:19;7.78;;;1.83;;
75620;SDS011;64574;48.506;-2.750;2024-03-23T18:04:46;7.78;;;1.35;;
75620;SDS011;64574;48.506;-2.750;2024-03-23T18:07:12;7.72;;;1.70;;
75620;SDS011;64574;48.506;-2.750;2024-03-23T18:09:37;8.93;;;1.83;;
75620;SDS011;64574;48.506;-2.750;2024-03-23T18:12:04;7.72;;;1.42;;
75620;SDS011;64574;48.506;-2.750;2024-03-23T18:21:48;6.70;;;1.70;;
75620;SDS011;64574;48.506;-2.750;2024-03-23T18:24:14;5.75;;;1.17;;
75620;SDS011;64574;48.506;-2.750;2024-03-23T18:26:40;5.47;;;1.33;;
75620;SDS011;64574;48.506;-2.750;2024-03-23T18:29:06;5.07;;;1.10;;
75620;SDS011;64574;48.506;-2.750;2024-03-23T19:05:39;6.78;;;1.30;;
75620;SDS011;64574;48.506;-2.750;2024-03-23T19:08:05;7.20;;;1.17;;
75620;SDS011;64574;48.506;-2.750;2024-03-23T19:10:31;7.13;;;1.65;;
75620;SDS011;64574;48.506;-2.750;2024-03-23T19:12:57;7.38;;;1.40;;
75620;SDS011;64574;48.506;-2.750;2024-03-23T19:15:23;3.47;;;0.93;;
75620;SDS011;64574;48.506;-2.750;2024-03-23T19:17:49;5.97;;;1.27;;
75620;SDS011;64574;48.506;-2.750;2024-03-23T19:20:16;4.68;;;0.88;;
75620;SDS011;64574;48.506;-2.750;2024-03-23T19:22:42;6.82;;;0.90;;
75620;SDS011;64574;48.506;-2.750;2024-03-23T19:25:08;6.07;;;1.02;;
75620;SDS011;64574;48.506;-2.750;2024-03-23T19:27:37;5.63;;;1.30;;
75620;SDS011;64574;48.506;-2.750;2024-03-23T19:30:06;9.48;;;2.10;;
75620;SDS011;64574;48.506;-2.750;2024-03-23T19:32:34;8.52;;;1.70;;
75620;SDS011;64574;48.506;-2.750;2024-03-23T19:35:01;7.47;;;1.65;;
75620;SDS011;64574;48.506;-2.750;2024-03-23T19:37:27;5.82;;;1.52;;
75620;SDS011;64574;48.506;-2.750;2024-03-23T19:39:54;5.85;;;1.52;;
75620;SDS011;64574;48.506;-2.750;2024-03-23T19:42:21;7.22;;;1.60;;
75620;SDS011;64574;48.506;-2.750;2024-03-23T19:44:47;8.60;;;1.85;;
75620;SDS011;64574;48.506;-2.750;2024-03-23T19:47:12;8.30;;;2.60;;
75620;SDS011;64574;48.506;-2.750;2024-03-23T19:49:38;9.93;;;3.53;;
75620;SDS011;64574;48.506;-2.750;2024-03-23T19:52:05;14.95;;;6.10;;
75620;SDS011;64574;48.506;-2.750;2024-03-23T19:54:31;9.10;;;2.50;;
75620;SDS011;64574;48.506;-2.750;2024-03-23T19:56:56;8.35;;;2.60;;
75620;SDS011;64574;48.506;-2.750;2024-03-23T19:59:22;8.13;;;2.75;;
75620;SDS011;64574;48.506;-2.750;2024-03-23T20:01:48;10.10;;;2.85;;
75620;SDS011;64574;48.506;-2.750;2024-03-23T20:04:14;8.47;;;2.90;;
75620;SDS011;64574;48.506;-2.750;2024-03-23T20:06:40;9.23;;;3.20;;
75620;SDS011;64574;48.506;-2.750;2024-03-23T20:09:05;11.90;;;4.93;;
75620;SDS011;64574;48.506;-2.750;2024-03-23T20:11:32;6.93;;;2.30;;
75620;SDS011;64574;48.506;-2.750;2024-03-23T20:13:58;8.53;;;2.93;;
75620;SDS011;64574;48.506;-2.750;2024-03-23T20:16:23;12.25;;;5.10;;
75620;SDS011;64574;48.506;-2.750;2024-03-23T20:18:55;9.77;;;3.17;;
75620;SDS011;64574;48.506;-2.750;2024-03-23T20:21:21;8.30;;;2.22;;
75620;SDS011;64574;48.506;-2.750;2024-03-23T20:23:47;7.07;;;1.77;;
75620;SDS011;64574;48.506;-2.750;2024-03-23T20:26:12;6.07;;;1.90;;
75620;SDS011;64574;48.506;-2.750;2024-03-23T20:28:38;7.40;;;2.30;;
75620;SDS011;64574;48.506;-2.750;2024-03-23T20:31:05;7.93;;;2.17;;
75620;SDS011;64574;48.506;-2.750;2024-03-23T20:33:33;7.77;;;1.90;;
75620;SDS011;64574;48.506;-2.750;2024-03-23T20:36:02;6.13;;;1.60;;
75620;SDS011;64574;48.506;-2.750;2024-03-23T20:38:28;7.10;;;1.55;;
75620;SDS011;64574;48.506;-2.750;2024-03-23T20:40:57;6.72;;;1.67;;
75620;SDS011;64574;48.506;-2.750;2024-03-23T20:43:24;5.93;;;1.80;;
75620;SDS011;64574;48.506;-2.750;2024-03-23T20:45:55;8.23;;;1.83;;
75620;SDS011;64574;48.506;-2.750;2024-03-23T20:48:23;8.88;;;2.10;;
75620;SDS011;64574;48.506;-2.750;2024-03-23T20:51:00;9.30;;;2.00;;
75620;SDS011;64574;48.506;-2.750;2024-03-23T20:53:27;6.87;;;1.97;;
75620;SDS011;64574;48.506;-2.750;2024-03-23T20:55:54;9.25;;;2.05;;
75620;SDS011;64574;48.506;-2.750;2024-03-23T20:58:22;6.78;;;2.13;;
75620;SDS011;64574;48.506;-2.750;2024-03-23T21:00:49;8.32;;;2.10;;
75620;SDS011;64574;48.506;-2.750;2024-03-23T21:03:15;8.63;;;2.20;;
75620;SDS011;64574;48.506;-2.750;2024-03-23T21:05:42;7.68;;;2.50;;
75620;SDS011;64574;48.506;-2.750;2024-03-23T21:08:10;10.25;;;1.90;;
75620;SDS011;64574;48.506;-2.750;2024-03-23T21:10:38;7.75;;;1.90;;
75620;SDS011;64574;48.506;-2.750;2024-03-23T21:13:04;8.48;;;1.70;;
75620;SDS011;64574;48.506;-2.750;2024-03-23T21:15:30;8.35;;;2.00;;
75620;SDS011;64574;48.506;-2.750;2024-03-23T21:17:56;9.57;;;2.30;;
75620;SDS011;64574;48.506;-2.750;2024-03-23T21:20:22;8.70;;;2.00;;
75620;SDS011;64574;48.506;-2.750;2024-03-23T21:22:51;9.73;;;1.90;;
75620;SDS011;64574;48.506;-2.750;2024-03-23T21:25:17;8.45;;;2.00;;
75620;SDS011;64574;48.506;-2.750;2024-03-23T21:27:43;7.07;;;1.60;;
75620;SDS011;64574;48.506;-2.750;2024-03-23T21:30:09;8.67;;;1.73;;
75620;SDS011;64574;48.506;-2.750;2024-03-23T21:32:35;12.73;;;2.50;;